sensor_id;sensor_type;location;lat;lon;timestamp;P1;durP1;ratioP1;P2;durP2;ratioP2
64225;SDS011;50545;56.064;26.178;2022-12-29T00:00:04;4.70;;;3.13;;
64225;SDS011;50545;56.064;26.178;2022-12-29T00:02:32;5.63;;;3.38;;
64225;SDS011;50545;56.064;26.178;2022-12-29T00:05:00;4.85;;;3.03;;
64225;SDS011;50545;56.064;26.178;2022-12-29T00:07:27;4.95;;;3.08;;
64225;SDS011;50545;56.064;26.178;2022-12-29T00:09:54;5.32;;;3.30;;
64225;SDS011;50545;56.064;26.178;2022-12-29T00:12:22;5.05;;;3.05;;
64225;SDS011;50545;56.064;26.178;2022-12-29T00:14:49;6.97;;;3.50;;
64225;SDS011;50545;56.064;26.178;2022-12-29T00:17:35;5.93;;;3.50;;
64225;SDS011;50545;56.064;26.178;2022-12-29T00:20:02;6.00;;;3.47;;
64225;SDS011;50545;56.064;26.178;2022-12-29T00:22:48;4.90;;;3.13;;
64225;SDS011;50545;56.064;26.178;2022-12-29T00:25:35;5.38;;;3.25;;
64225;SDS011;50545;56.064;26.178;2022-12-29T00:28:21;5.13;;;3.13;;
64225;SDS011;50545;56.064;26.178;2022-12-29T00:31:07;4.70;;;2.83;;
64225;SDS011;50545;56.064;26.178;2022-12-29T00:33:57;5.32;;;3.55;;
64225;SDS011;50545;56.064;26.178;2022-12-29T00:36:43;5.70;;;3.30;;
64225;SDS011;50545;56.064;26.178;2022-12-29T00:39:14;5.10;;;3.20;;
64225;SDS011;50545;56.064;26.178;2022-12-29T00:42:06;5.10;;;3.30;;
64225;SDS011;50545;56.064;26.178;2022-12-29T00:44:54;5.95;;;3.70;;
64225;SDS011;50545;56.064;26.178;2022-12-29T00:47:21;4.45;;;3.00;;
64225;SDS011;50545;56.064;26.178;2022-12-29T00:49:48;5.00;;;3.00;;
64225;SDS011;50545;56.064;26.178;2022-12-29T00:52:15;5.78;;;3.55;;
64225;SDS011;50545;56.064;26.178;2022-12-29T00:54:42;5.95;;;3.47;;
64225;SDS011;50545;56.064;26.178;2022-12-29T00:57:11;5.53;;;3.50;;
64225;SDS011;50545;56.064;26.178;2022-12-29T00:59:39;5.82;;;3.60;;
64225;SDS011;50545;56.064;26.178;2022-12-29T01:02:08;5.85;;;3.60;;
64225;SDS011;50545;56.064;26.178;2022-12-29T01:04:36;6.20;;;3.97;;
64225;SDS011;50545;56.064;26.178;2022-12-29T01:07:04;5.63;;;3.30;;
64225;SDS011;50545;56.064;26.178;2022-12-29T01:09:32;5.32;;;3.35;;
64225;SDS011;50545;56.064;26.178;2022-12-29T01:12:18;5.78;;;3.35;;
64225;SDS011;50545;56.064;26.178;2022-12-29T01:15:06;6.15;;;3.75;;
64225;SDS011;50545;56.064;26.178;2022-12-29T01:17:34;6.38;;;3.38;;
64225;SDS011;50545;56.064;26.178;2022-12-29T01:20:02;5.20;;;3.40;;
64225;SDS011;50545;56.064;26.178;2022-12-29T01:22:30;5.95;;;3.88;;
64225;SDS011;50545;56.064;26.178;2022-12-29T01:24:57;6.25;;;4.05;;
64225;SDS011;50545;56.064;26.178;2022-12-29T01:27:24;5.95;;;3.78;;
64225;SDS011;50545;56.064;26.178;2022-12-29T01:29:52;6.40;;;4.13;;
64225;SDS011;50545;56.064;26.178;2022-12-29T01:32:19;6.45;;;3.97;;
64225;SDS011;50545;56.064;26.178;2022-12-29T01:34:46;6.90;;;4.30;;
64225;SDS011;50545;56.064;26.178;2022-12-29T01:37:14;7.15;;;3.97;;
64225;SDS011;50545;56.064;26.178;2022-12-29T01:39:41;6.50;;;3.85;;
64225;SDS011;50545;56.064;26.178;2022-12-29T01:42:14;6.00;;;3.83;;
64225;SDS011;50545;56.064;26.178;2022-12-29T01:47:19;6.25;;;3.70;;
64225;SDS011;50545;56.064;26.178;2022-12-29T01:49:52;7.00;;;4.00;;
64225;SDS011;50545;56.064;26.178;2022-12-29T01:52:21;6.65;;;4.07;;
64225;SDS011;50545;56.064;26.178;2022-12-29T01:54:53;7.90;;;4.80;;
64225;SDS011;50545;56.064;26.178;2022-12-29T01:57:26;6.82;;;3.83;;
64225;SDS011;50545;56.064;26.178;2022-12-29T01:59:57;6.95;;;4.25;;
64225;SDS011;50545;56.064;26.178;2022-12-29T02:02:27;6.47;;;3.97;;
64225;SDS011;50545;56.064;26.178;2022-12-29T02:04:58;6.50;;;3.97;;
64225;SDS011;50545;56.064;26.178;2022-12-29T02:07:32;8.63;;;4.43;;
64225;SDS011;50545;56.064;26.178;2022-12-29T02:10:00;6.00;;;3.80;;
64225;SDS011;50545;56.064;26.178;2022-12-29T02:12:28;7.50;;;4.40;;
64225;SDS011;50545;56.064;26.178;2022-12-29T02:14:56;7.07;;;4.38;;
64225;SDS011;50545;56.064;26.178;2022-12-29T02:23:19;7.38;;;4.43;;
64225;SDS011;50545;56.064;26.178;2022-12-29T02:37:38;8.88;;;5.20;;
64225;SDS011;50545;56.064;26.178;2022-12-29T02:45:58;6.60;;;4.22;;
64225;SDS011;50545;56.064;26.178;2022-12-29T02:48:52;7.78;;;4.10;;
64225;SDS011;50545;56.064;26.178;2022-12-29T02:51:43;5.78;;;3.78;;
64225;SDS011;50545;56.064;26.178;2022-12-29T02:54:16;7.32;;;4.28;;
64225;SDS011;50545;56.064;26.178;2022-12-29T02:57:07;7.20;;;4.05;;
64225;SDS011;50545;56.064;26.178;2022-12-29T02:59:38;7.40;;;3.97;;
64225;SDS011;50545;56.064;26.178;2022-12-29T03:10:53;8.55;;;4.45;;
64225;SDS011;50545;56.064;26.178;2022-12-29T03:13:47;8.05;;;4.30;;
64225;SDS011;50545;56.064;26.178;2022-12-29T03:19:18;8.18;;;4.60;;
64225;SDS011;50545;56.064;26.178;2022-12-29T03:24:47;6.57;;;4.55;;
64225;SDS011;50545;56.064;26.178;2022-12-29T03:27:19;9.00;;;4.35;;
64225;SDS011;50545;56.064;26.178;2022-12-29T03:29:52;6.65;;;3.95;;
64225;SDS011;50545;56.064;26.178;2022-12-29T03:32:27;7.28;;;4.40;;
64225;SDS011;50545;56.064;26.178;2022-12-29T03:35:02;7.75;;;4.78;;
64225;SDS011;50545;56.064;26.178;2022-12-29T03:40:19;8.40;;;4.65;;
64225;SDS011;50545;56.064;26.178;2022-12-29T03:42:49;8.18;;;4.70;;
64225;SDS011;50545;56.064;26.178;2022-12-29T03:45:18;7.00;;;3.65;;
64225;SDS011;50545;56.064;26.178;2022-12-29T03:47:45;7.30;;;4.28;;
64225;SDS011;50545;56.064;26.178;2022-12-29T03:50:14;7.60;;;4.63;;
64225;SDS011;50545;56.064;26.178;2022-12-29T03:52:41;7.75;;;4.78;;
64225;SDS011;50545;56.064;26.178;2022-12-29T03:55:08;7.63;;;4.47;;
64225;SDS011;50545;56.064;26.178;2022-12-29T03:57:36;6.70;;;4.32;;
64225;SDS011;50545;56.064;26.178;2022-12-29T04:00:04;7.25;;;4.10;;
64225;SDS011;50545;56.064;26.178;2022-12-29T04:02:32;8.18;;;4.35;;
64225;SDS011;50545;56.064;26.178;2022-12-29T04:05:00;7.00;;;4.25;;
64225;SDS011;50545;56.064;26.178;2022-12-29T04:07:27;7.00;;;3.92;;
64225;SDS011;50545;56.064;26.178;2022-12-29T04:09:54;8.10;;;4.32;;
64225;SDS011;50545;56.064;26.178;2022-12-29T04:12:21;7.07;;;4.50;;
64225;SDS011;50545;56.064;26.178;2022-12-29T04:14:49;8.10;;;4.75;;
64225;SDS011;50545;56.064;26.178;2022-12-29T04:17:16;8.00;;;4.25;;
64225;SDS011;50545;56.064;26.178;2022-12-29T04:19:43;7.45;;;4.45;;
64225;SDS011;50545;56.064;26.178;2022-12-29T04:22:11;9.00;;;5.13;;
64225;SDS011;50545;56.064;26.178;2022-12-29T04:24:39;8.50;;;4.93;;
64225;SDS011;50545;56.064;26.178;2022-12-29T04:27:06;7.45;;;4.60;;
64225;SDS011;50545;56.064;26.178;2022-12-29T04:29:33;10.88;;;5.20;;
64225;SDS011;50545;56.064;26.178;2022-12-29T04:32:01;6.82;;;4.53;;
64225;SDS011;50545;56.064;26.178;2022-12-29T04:34:28;7.85;;;4.72;;
64225;SDS011;50545;56.064;26.178;2022-12-29T04:36:55;8.65;;;5.05;;
64225;SDS011;50545;56.064;26.178;2022-12-29T04:39:22;7.03;;;4.20;;
64225;SDS011;50545;56.064;26.178;2022-12-29T04:41:50;8.20;;;4.55;;
64225;SDS011;50545;56.064;26.178;2022-12-29T04:44:17;9.38;;;4.75;;
64225;SDS011;50545;56.064;26.178;2022-12-29T04:46:44;6.82;;;3.70;;
64225;SDS011;50545;56.064;26.178;2022-12-29T04:49:11;7.78;;;4.82;;
64225;SDS011;50545;56.064;26.178;2022-12-29T04:51:39;9.05;;;4.53;;
64225;SDS011;50545;56.064;26.178;2022-12-29T04:54:06;8.35;;;4.32;;
64225;SDS011;50545;56.064;26.178;2022-12-29T04:56:33;7.43;;;4.47;;
64225;SDS011;50545;56.064;26.178;2022-12-29T04:59:01;7.63;;;4.38;;
64225;SDS011;50545;56.064;26.178;2022-12-29T05:01:28;7.38;;;4.15;;
64225;SDS011;50545;56.064;26.178;2022-12-29T05:03:55;8.25;;;4.55;;
64225;SDS011;50545;56.064;26.178;2022-12-29T05:06:22;7.55;;;4.22;;
64225;SDS011;50545;56.064;26.178;2022-12-29T05:08:50;8.35;;;4.72;;
64225;SDS011;50545;56.064;26.178;2022-12-29T05:11:17;7.40;;;4.22;;
64225;SDS011;50545;56.064;26.178;2022-12-29T05:13:47;8.30;;;4.60;;
64225;SDS011;50545;56.064;26.178;2022-12-29T05:16:14;7.22;;;4.10;;
64225;SDS011;50545;56.064;26.178;2022-12-29T05:18:42;7.47;;;4.20;;
64225;SDS011;50545;56.064;26.178;2022-12-29T05:21:09;7.15;;;4.28;;
64225;SDS011;50545;56.064;26.178;2022-12-29T05:23:37;8.38;;;4.15;;
64225;SDS011;50545;56.064;26.178;2022-12-29T05:26:04;6.22;;;3.70;;
64225;SDS011;50545;56.064;26.178;2022-12-29T05:28:31;7.93;;;4.20;;
64225;SDS011;50545;56.064;26.178;2022-12-29T05:30:58;7.65;;;4.38;;
64225;SDS011;50545;56.064;26.178;2022-12-29T05:33:26;7.22;;;4.10;;
64225;SDS011;50545;56.064;26.178;2022-12-29T05:35:53;7.80;;;4.32;;
64225;SDS011;50545;56.064;26.178;2022-12-29T05:38:20;5.80;;;3.38;;
64225;SDS011;50545;56.064;26.178;2022-12-29T05:40:47;6.38;;;3.85;;
64225;SDS011;50545;56.064;26.178;2022-12-29T05:43:15;7.68;;;3.97;;
64225;SDS011;50545;56.064;26.178;2022-12-29T05:45:43;7.45;;;4.30;;
64225;SDS011;50545;56.064;26.178;2022-12-29T05:48:11;7.82;;;4.10;;
64225;SDS011;50545;56.064;26.178;2022-12-29T05:50:38;6.32;;;4.20;;
64225;SDS011;50545;56.064;26.178;2022-12-29T05:53:05;9.07;;;4.40;;
64225;SDS011;50545;56.064;26.178;2022-12-29T05:55:32;8.15;;;4.38;;
64225;SDS011;50545;56.064;26.178;2022-12-29T05:58:00;7.18;;;3.95;;
64225;SDS011;50545;56.064;26.178;2022-12-29T06:00:27;8.57;;;4.40;;
64225;SDS011;50545;56.064;26.178;2022-12-29T06:02:54;7.88;;;4.82;;
64225;SDS011;50545;56.064;26.178;2022-12-29T06:05:21;8.13;;;4.22;;
64225;SDS011;50545;56.064;26.178;2022-12-29T06:07:49;5.25;;;3.45;;
64225;SDS011;50545;56.064;26.178;2022-12-29T06:10:16;7.05;;;3.90;;
64225;SDS011;50545;56.064;26.178;2022-12-29T06:12:43;5.75;;;3.38;;
64225;SDS011;50545;56.064;26.178;2022-12-29T06:15:10;6.40;;;3.95;;
64225;SDS011;50545;56.064;26.178;2022-12-29T06:17:37;6.57;;;3.70;;
64225;SDS011;50545;56.064;26.178;2022-12-29T06:20:05;7.47;;;3.97;;
64225;SDS011;50545;56.064;26.178;2022-12-29T06:22:32;9.02;;;4.63;;
64225;SDS011;50545;56.064;26.178;2022-12-29T06:25:00;7.30;;;3.67;;
64225;SDS011;50545;56.064;26.178;2022-12-29T06:27:30;8.27;;;4.10;;
64225;SDS011;50545;56.064;26.178;2022-12-29T06:29:58;6.70;;;3.78;;
64225;SDS011;50545;56.064;26.178;2022-12-29T06:32:25;7.43;;;4.50;;
64225;SDS011;50545;56.064;26.178;2022-12-29T06:34:52;6.82;;;3.95;;
64225;SDS011;50545;56.064;26.178;2022-12-29T06:37:19;7.53;;;4.40;;
64225;SDS011;50545;56.064;26.178;2022-12-29T06:39:47;7.45;;;4.43;;
64225;SDS011;50545;56.064;26.178;2022-12-29T06:42:14;7.80;;;4.20;;
64225;SDS011;50545;56.064;26.178;2022-12-29T06:44:41;5.88;;;3.65;;
64225;SDS011;50545;56.064;26.178;2022-12-29T06:47:09;7.40;;;4.30;;
64225;SDS011;50545;56.064;26.178;2022-12-29T06:49:36;7.22;;;3.92;;
64225;SDS011;50545;56.064;26.178;2022-12-29T06:52:03;6.38;;;3.88;;
64225;SDS011;50545;56.064;26.178;2022-12-29T06:54:38;7.97;;;4.57;;
64225;SDS011;50545;56.064;26.178;2022-12-29T06:57:05;7.60;;;4.35;;
64225;SDS011;50545;56.064;26.178;2022-12-29T06:59:32;8.55;;;4.45;;
64225;SDS011;50545;56.064;26.178;2022-12-29T07:01:59;7.78;;;4.40;;
64225;SDS011;50545;56.064;26.178;2022-12-29T07:04:28;7.70;;;3.97;;
64225;SDS011;50545;56.064;26.178;2022-12-29T07:06:56;9.05;;;4.53;;
64225;SDS011;50545;56.064;26.178;2022-12-29T07:09:23;7.55;;;4.10;;
64225;SDS011;50545;56.064;26.178;2022-12-29T07:11:50;6.85;;;4.35;;
64225;SDS011;50545;56.064;26.178;2022-12-29T07:14:17;6.50;;;4.07;;
64225;SDS011;50545;56.064;26.178;2022-12-29T07:16:44;7.40;;;4.25;;
64225;SDS011;50545;56.064;26.178;2022-12-29T07:19:11;7.65;;;3.90;;
64225;SDS011;50545;56.064;26.178;2022-12-29T07:21:39;8.38;;;4.25;;
64225;SDS011;50545;56.064;26.178;2022-12-29T07:24:12;7.50;;;4.07;;
64225;SDS011;50545;56.064;26.178;2022-12-29T07:26:39;7.82;;;4.47;;
64225;SDS011;50545;56.064;26.178;2022-12-29T07:29:07;6.43;;;3.78;;
64225;SDS011;50545;56.064;26.178;2022-12-29T07:31:34;6.35;;;3.90;;
64225;SDS011;50545;56.064;26.178;2022-12-29T07:34:01;7.45;;;4.03;;
64225;SDS011;50545;56.064;26.178;2022-12-29T07:36:29;7.03;;;4.00;;
64225;SDS011;50545;56.064;26.178;2022-12-29T07:39:00;7.30;;;3.75;;
64225;SDS011;50545;56.064;26.178;2022-12-29T07:41:27;5.70;;;3.47;;
64225;SDS011;50545;56.064;26.178;2022-12-29T07:43:54;5.75;;;3.45;;
64225;SDS011;50545;56.064;26.178;2022-12-29T07:46:21;7.53;;;3.70;;
64225;SDS011;50545;56.064;26.178;2022-12-29T07:49:09;7.35;;;3.75;;
64225;SDS011;50545;56.064;26.178;2022-12-29T07:51:36;6.32;;;3.47;;
64225;SDS011;50545;56.064;26.178;2022-12-29T07:54:03;6.22;;;3.47;;
64225;SDS011;50545;56.064;26.178;2022-12-29T07:56:30;6.65;;;3.80;;
64225;SDS011;50545;56.064;26.178;2022-12-29T07:58:57;6.00;;;3.60;;
64225;SDS011;50545;56.064;26.178;2022-12-29T08:01:25;7.00;;;3.83;;
64225;SDS011;50545;56.064;26.178;2022-12-29T08:03:52;6.75;;;3.83;;
64225;SDS011;50545;56.064;26.178;2022-12-29T08:06:22;6.40;;;3.53;;
64225;SDS011;50545;56.064;26.178;2022-12-29T08:08:49;6.70;;;3.47;;
64225;SDS011;50545;56.064;26.178;2022-12-29T08:11:17;7.78;;;4.30;;
64225;SDS011;50545;56.064;26.178;2022-12-29T08:13:44;6.50;;;3.70;;
64225;SDS011;50545;56.064;26.178;2022-12-29T08:16:11;6.72;;;4.00;;
64225;SDS011;50545;56.064;26.178;2022-12-29T08:18:38;7.95;;;4.65;;
64225;SDS011;50545;56.064;26.178;2022-12-29T08:21:05;6.93;;;4.22;;
64225;SDS011;50545;56.064;26.178;2022-12-29T08:23:32;9.10;;;4.38;;
64225;SDS011;50545;56.064;26.178;2022-12-29T08:26:00;6.90;;;3.85;;
64225;SDS011;50545;56.064;26.178;2022-12-29T08:28:30;6.88;;;4.03;;
64225;SDS011;50545;56.064;26.178;2022-12-29T08:30:58;9.20;;;4.00;;
64225;SDS011;50545;56.064;26.178;2022-12-29T08:33:27;7.15;;;3.72;;
64225;SDS011;50545;56.064;26.178;2022-12-29T08:36:13;7.15;;;3.63;;
64225;SDS011;50545;56.064;26.178;2022-12-29T08:38:41;6.75;;;3.90;;
64225;SDS011;50545;56.064;26.178;2022-12-29T08:41:08;8.05;;;4.05;;
64225;SDS011;50545;56.064;26.178;2022-12-29T08:43:35;7.65;;;3.88;;
64225;SDS011;50545;56.064;26.178;2022-12-29T08:46:02;7.55;;;3.90;;
64225;SDS011;50545;56.064;26.178;2022-12-29T08:48:30;7.68;;;3.58;;
64225;SDS011;50545;56.064;26.178;2022-12-29T08:50:57;5.78;;;3.60;;
64225;SDS011;50545;56.064;26.178;2022-12-29T08:53:24;6.38;;;3.78;;
64225;SDS011;50545;56.064;26.178;2022-12-29T08:55:58;7.13;;;3.63;;
64225;SDS011;50545;56.064;26.178;2022-12-29T08:58:30;8.85;;;4.15;;
64225;SDS011;50545;56.064;26.178;2022-12-29T09:00:58;5.82;;;3.50;;
64225;SDS011;50545;56.064;26.178;2022-12-29T09:03:26;6.63;;;3.50;;
64225;SDS011;50545;56.064;26.178;2022-12-29T09:06:14;5.32;;;3.15;;
64225;SDS011;50545;56.064;26.178;2022-12-29T09:08:42;5.85;;;3.58;;
64225;SDS011;50545;56.064;26.178;2022-12-29T09:11:11;6.72;;;3.30;;
64225;SDS011;50545;56.064;26.178;2022-12-29T09:13:43;6.07;;;3.50;;
64225;SDS011;50545;56.064;26.178;2022-12-29T09:16:11;5.90;;;3.15;;
64225;SDS011;50545;56.064;26.178;2022-12-29T09:18:39;4.88;;;3.08;;
64225;SDS011;50545;56.064;26.178;2022-12-29T09:21:06;5.03;;;3.00;;
64225;SDS011;50545;56.064;26.178;2022-12-29T09:23:33;5.22;;;2.92;;
64225;SDS011;50545;56.064;26.178;2022-12-29T09:26:01;4.65;;;2.97;;
64225;SDS011;50545;56.064;26.178;2022-12-29T09:28:28;4.57;;;2.80;;
64225;SDS011;50545;56.064;26.178;2022-12-29T09:30:56;5.85;;;2.95;;
64225;SDS011;50545;56.064;26.178;2022-12-29T09:33:24;4.97;;;3.15;;
64225;SDS011;50545;56.064;26.178;2022-12-29T09:35:53;6.03;;;2.80;;
64225;SDS011;50545;56.064;26.178;2022-12-29T09:38:23;4.53;;;3.00;;
64225;SDS011;50545;56.064;26.178;2022-12-29T09:40:53;4.68;;;2.70;;
64225;SDS011;50545;56.064;26.178;2022-12-29T09:46:35;4.93;;;2.85;;
64225;SDS011;50545;56.064;26.178;2022-12-29T09:49:11;4.93;;;2.67;;
64225;SDS011;50545;56.064;26.178;2022-12-29T09:52:04;4.88;;;2.72;;
64225;SDS011;50545;56.064;26.178;2022-12-29T09:54:54;5.85;;;3.05;;
64225;SDS011;50545;56.064;26.178;2022-12-29T10:00:21;5.85;;;3.08;;
64225;SDS011;50545;56.064;26.178;2022-12-29T10:02:56;4.70;;;2.70;;
64225;SDS011;50545;56.064;26.178;2022-12-29T10:05:38;4.88;;;2.83;;
64225;SDS011;50545;56.064;26.178;2022-12-29T10:08:14;4.57;;;2.90;;
64225;SDS011;50545;56.064;26.178;2022-12-29T10:19:16;4.95;;;2.90;;
64225;SDS011;50545;56.064;26.178;2022-12-29T10:24:44;5.05;;;2.85;;
64225;SDS011;50545;56.064;26.178;2022-12-29T10:27:14;5.85;;;2.95;;
64225;SDS011;50545;56.064;26.178;2022-12-29T10:29:45;5.60;;;2.80;;
64225;SDS011;50545;56.064;26.178;2022-12-29T10:32:40;4.82;;;2.78;;
64225;SDS011;50545;56.064;26.178;2022-12-29T10:35:20;4.07;;;2.63;;
64225;SDS011;50545;56.064;26.178;2022-12-29T10:44:04;5.32;;;3.22;;
64225;SDS011;50545;56.064;26.178;2022-12-29T10:46:35;5.30;;;3.00;;
64225;SDS011;50545;56.064;26.178;2022-12-29T10:49:04;5.82;;;3.40;;
64225;SDS011;50545;56.064;26.178;2022-12-29T10:51:42;6.35;;;3.00;;
64225;SDS011;50545;56.064;26.178;2022-12-29T10:57:09;5.43;;;3.13;;
64225;SDS011;50545;56.064;26.178;2022-12-29T10:59:42;5.35;;;3.28;;
64225;SDS011;50545;56.064;26.178;2022-12-29T11:07:11;5.13;;;3.10;;
64225;SDS011;50545;56.064;26.178;2022-12-29T11:09:42;5.32;;;3.17;;
64225;SDS011;50545;56.064;26.178;2022-12-29T11:15:01;5.68;;;3.22;;
64225;SDS011;50545;56.064;26.178;2022-12-29T11:17:28;6.10;;;2.85;;
64225;SDS011;50545;56.064;26.178;2022-12-29T11:19:55;5.35;;;3.22;;
64225;SDS011;50545;56.064;26.178;2022-12-29T11:25:04;5.53;;;3.13;;
64225;SDS011;50545;56.064;26.178;2022-12-29T11:30:10;3.97;;;2.65;;
64225;SDS011;50545;56.064;26.178;2022-12-29T11:32:53;5.15;;;3.33;;
64225;SDS011;50545;56.064;26.178;2022-12-29T11:35:29;6.25;;;3.60;;
64225;SDS011;50545;56.064;26.178;2022-12-29T11:38:02;5.53;;;3.00;;
64225;SDS011;50545;56.064;26.178;2022-12-29T11:40:31;3.38;;;2.03;;
64225;SDS011;50545;56.064;26.178;2022-12-29T11:43:05;4.70;;;2.50;;
64225;SDS011;50545;56.064;26.178;2022-12-29T11:45:33;4.00;;;2.72;;
64225;SDS011;50545;56.064;26.178;2022-12-29T11:48:09;4.55;;;2.88;;
64225;SDS011;50545;56.064;26.178;2022-12-29T11:50:50;3.95;;;2.55;;
64225;SDS011;50545;56.064;26.178;2022-12-29T11:55:54;5.07;;;2.90;;
64225;SDS011;50545;56.064;26.178;2022-12-29T11:58:34;3.83;;;2.55;;
64225;SDS011;50545;56.064;26.178;2022-12-29T12:01:20;3.85;;;2.50;;
64225;SDS011;50545;56.064;26.178;2022-12-29T12:06:57;4.65;;;2.65;;
64225;SDS011;50545;56.064;26.178;2022-12-29T12:09:28;5.22;;;2.72;;
64225;SDS011;50545;56.064;26.178;2022-12-29T12:12:47;4.00;;;2.50;;
64225;SDS011;50545;56.064;26.178;2022-12-29T12:15:39;3.58;;;2.28;;
64225;SDS011;50545;56.064;26.178;2022-12-29T12:24:02;4.20;;;2.50;;
64225;SDS011;50545;56.064;26.178;2022-12-29T12:26:59;3.72;;;2.55;;
64225;SDS011;50545;56.064;26.178;2022-12-29T12:29:36;3.92;;;2.40;;
64225;SDS011;50545;56.064;26.178;2022-12-29T12:32:26;3.95;;;2.60;;
64225;SDS011;50545;56.064;26.178;2022-12-29T12:35:13;4.50;;;2.50;;
64225;SDS011;50545;56.064;26.178;2022-12-29T12:37:59;3.55;;;2.30;;
64225;SDS011;50545;56.064;26.178;2022-12-29T12:46:14;3.60;;;2.40;;
64225;SDS011;50545;56.064;26.178;2022-12-29T12:49:42;3.50;;;2.03;;
64225;SDS011;50545;56.064;26.178;2022-12-29T13:14:49;3.67;;;2.30;;
64225;SDS011;50545;56.064;26.178;2022-12-29T13:17:30;4.22;;;1.98;;
64225;SDS011;50545;56.064;26.178;2022-12-29T13:20:24;3.58;;;2.25;;
64225;SDS011;50545;56.064;26.178;2022-12-29T13:23:02;4.03;;;2.30;;
64225;SDS011;50545;56.064;26.178;2022-12-29T13:25:37;3.80;;;2.28;;
64225;SDS011;50545;56.064;26.178;2022-12-29T13:28:25;4.72;;;2.08;;
64225;SDS011;50545;56.064;26.178;2022-12-29T13:36:48;4.38;;;2.53;;
64225;SDS011;50545;56.064;26.178;2022-12-29T13:41:56;3.97;;;2.60;;
64225;SDS011;50545;56.064;26.178;2022-12-29T13:44:31;3.28;;;2.13;;
64225;SDS011;50545;56.064;26.178;2022-12-29T13:49:57;5.45;;;2.80;;
64225;SDS011;50545;56.064;26.178;2022-12-29T13:52:29;4.45;;;2.50;;
64225;SDS011;50545;56.064;26.178;2022-12-29T13:58:08;5.18;;;2.50;;
64225;SDS011;50545;56.064;26.178;2022-12-29T14:00:51;3.63;;;2.30;;
64225;SDS011;50545;56.064;26.178;2022-12-29T14:06:13;4.00;;;2.25;;
64225;SDS011;50545;56.064;26.178;2022-12-29T14:08:41;5.03;;;2.60;;
64225;SDS011;50545;56.064;26.178;2022-12-29T14:11:11;4.90;;;2.67;;
64225;SDS011;50545;56.064;26.178;2022-12-29T14:13:41;4.07;;;2.53;;
64225;SDS011;50545;56.064;26.178;2022-12-29T14:18:52;1.83;;;1.17;;
64225;SDS011;50545;56.064;26.178;2022-12-29T14:21:21;5.03;;;2.78;;
64225;SDS011;50545;56.064;26.178;2022-12-29T14:23:57;5.35;;;2.90;;
64225;SDS011;50545;56.064;26.178;2022-12-29T14:26:47;6.30;;;3.30;;
64225;SDS011;50545;56.064;26.178;2022-12-29T14:31:56;3.83;;;2.53;;
64225;SDS011;50545;56.064;26.178;2022-12-29T14:34:27;4.85;;;2.53;;
64225;SDS011;50545;56.064;26.178;2022-12-29T14:37:14;4.82;;;2.97;;
64225;SDS011;50545;56.064;26.178;2022-12-29T14:40:37;6.10;;;2.78;;
64225;SDS011;50545;56.064;26.178;2022-12-29T14:42:49;5.30;;;3.03;;
64225;SDS011;50545;56.064;26.178;2022-12-29T14:47:46;6.82;;;3.05;;
64225;SDS011;50545;56.064;26.178;2022-12-29T14:50:18;5.32;;;3.15;;
64225;SDS011;50545;56.064;26.178;2022-12-29T14:53:10;5.60;;;2.90;;
64225;SDS011;50545;56.064;26.178;2022-12-29T14:56:11;5.22;;;2.63;;
64225;SDS011;50545;56.064;26.178;2022-12-29T14:58:49;5.97;;;3.00;;
64225;SDS011;50545;56.064;26.178;2022-12-29T15:01:43;5.93;;;3.03;;
64225;SDS011;50545;56.064;26.178;2022-12-29T15:04:17;5.63;;;2.95;;
64225;SDS011;50545;56.064;26.178;2022-12-29T15:06:48;5.32;;;2.97;;
64225;SDS011;50545;56.064;26.178;2022-12-29T15:09:23;6.43;;;3.40;;
64225;SDS011;50545;56.064;26.178;2022-12-29T15:12:11;6.20;;;2.33;;
64225;SDS011;50545;56.064;26.178;2022-12-29T15:14:56;5.95;;;3.05;;
64225;SDS011;50545;56.064;26.178;2022-12-29T15:17:29;5.82;;;3.13;;
64225;SDS011;50545;56.064;26.178;2022-12-29T15:20:13;5.57;;;2.78;;
64225;SDS011;50545;56.064;26.178;2022-12-29T15:22:48;6.30;;;3.22;;
64225;SDS011;50545;56.064;26.178;2022-12-29T15:25:21;7.28;;;3.45;;
64225;SDS011;50545;56.064;26.178;2022-12-29T15:27:57;6.50;;;3.53;;
64225;SDS011;50545;56.064;26.178;2022-12-29T15:30:28;5.55;;;3.30;;
64225;SDS011;50545;56.064;26.178;2022-12-29T15:32:55;5.28;;;3.05;;
64225;SDS011;50545;56.064;26.178;2022-12-29T15:37:55;7.28;;;3.50;;
64225;SDS011;50545;56.064;26.178;2022-12-29T15:40:27;6.07;;;3.42;;
64225;SDS011;50545;56.064;26.178;2022-12-29T15:43:18;5.80;;;3.20;;
64225;SDS011;50545;56.064;26.178;2022-12-29T15:45:57;5.60;;;3.35;;
64225;SDS011;50545;56.064;26.178;2022-12-29T15:48:27;7.00;;;3.88;;
64225;SDS011;50545;56.064;26.178;2022-12-29T15:50:54;7.35;;;3.70;;
64225;SDS011;50545;56.064;26.178;2022-12-29T15:53:31;6.93;;;3.85;;
64225;SDS011;50545;56.064;26.178;2022-12-29T15:56:01;7.00;;;3.63;;
64225;SDS011;50545;56.064;26.178;2022-12-29T15:58:38;6.32;;;3.80;;
64225;SDS011;50545;56.064;26.178;2022-12-29T16:01:24;8.20;;;4.05;;
64225;SDS011;50545;56.064;26.178;2022-12-29T16:03:53;7.10;;;3.88;;
64225;SDS011;50545;56.064;26.178;2022-12-29T16:06:28;7.28;;;4.13;;
64225;SDS011;50545;56.064;26.178;2022-12-29T16:08:56;6.20;;;3.67;;
64225;SDS011;50545;56.064;26.178;2022-12-29T16:11:38;7.15;;;4.05;;
64225;SDS011;50545;56.064;26.178;2022-12-29T16:14:08;6.55;;;3.85;;
64225;SDS011;50545;56.064;26.178;2022-12-29T16:16:41;7.07;;;3.78;;
64225;SDS011;50545;56.064;26.178;2022-12-29T16:21:42;7.38;;;4.13;;
64225;SDS011;50545;56.064;26.178;2022-12-29T16:24:14;9.40;;;5.90;;
64225;SDS011;50545;56.064;26.178;2022-12-29T16:26:48;8.15;;;4.43;;
64225;SDS011;50545;56.064;26.178;2022-12-29T16:29:33;6.72;;;3.92;;
64225;SDS011;50545;56.064;26.178;2022-12-29T16:32:01;7.28;;;4.15;;
64225;SDS011;50545;56.064;26.178;2022-12-29T16:34:30;7.93;;;4.20;;
64225;SDS011;50545;56.064;26.178;2022-12-29T16:37:00;8.00;;;4.17;;
64225;SDS011;50545;56.064;26.178;2022-12-29T16:42:00;7.22;;;3.88;;
64225;SDS011;50545;56.064;26.178;2022-12-29T16:44:47;7.90;;;4.43;;
64225;SDS011;50545;56.064;26.178;2022-12-29T16:49:46;5.87;;;3.60;;
64225;SDS011;50545;56.064;26.178;2022-12-29T16:54:50;7.75;;;3.70;;
64225;SDS011;50545;56.064;26.178;2022-12-29T16:57:27;6.63;;;3.35;;
64225;SDS011;50545;56.064;26.178;2022-12-29T16:59:58;5.90;;;3.33;;
64225;SDS011;50545;56.064;26.178;2022-12-29T17:02:29;6.10;;;3.50;;
64225;SDS011;50545;56.064;26.178;2022-12-29T17:04:58;7.10;;;3.58;;
64225;SDS011;50545;56.064;26.178;2022-12-29T17:07:27;7.15;;;4.13;;
64225;SDS011;50545;56.064;26.178;2022-12-29T17:09:54;6.40;;;3.20;;
64225;SDS011;50545;56.064;26.178;2022-12-29T17:12:28;6.70;;;3.90;;
64225;SDS011;50545;56.064;26.178;2022-12-29T17:17:46;7.85;;;3.42;;
64225;SDS011;50545;56.064;26.178;2022-12-29T17:22:54;7.13;;;3.75;;
64225;SDS011;50545;56.064;26.178;2022-12-29T17:28:00;6.15;;;4.00;;
64225;SDS011;50545;56.064;26.178;2022-12-29T17:30:31;6.35;;;3.95;;
64225;SDS011;50545;56.064;26.178;2022-12-29T17:33:01;6.10;;;3.97;;
64225;SDS011;50545;56.064;26.178;2022-12-29T17:35:29;6.05;;;3.60;;
64225;SDS011;50545;56.064;26.178;2022-12-29T17:37:56;5.72;;;3.75;;
64225;SDS011;50545;56.064;26.178;2022-12-29T17:40:24;6.20;;;3.55;;
64225;SDS011;50545;56.064;26.178;2022-12-29T17:42:55;6.43;;;3.58;;
64225;SDS011;50545;56.064;26.178;2022-12-29T17:45:24;5.93;;;3.92;;
64225;SDS011;50545;56.064;26.178;2022-12-29T17:47:53;5.77;;;3.40;;
64225;SDS011;50545;56.064;26.178;2022-12-29T17:50:24;6.68;;;3.80;;